Time;durP1;ratioP1;P1;durP2;ratioP2;P2;SDS_P1;SDS_P2;PMS_P1;PMS_P2;Temp;Humidity;BMP_temperature;BMP_pressure;BME280_temperature;BME280_humidity;BME280_pressure;Samples;Min_cycle;Max_cycle;Signal;HPM_P1;HPM_P2
2023/12/20 00:00:26;;;;;;;7.10;4.90;;;;;;;;;;81939;288;3027261;-34
2023/12/20 00:03:43;;;;;;;7.00;4.80;;;;;;;;;;82075;280;3030981;-34
2023/12/20 00:06:25;;;;;;;7.10;4.90;;;;;;;;;;82021;280;3036761;-34
2023/12/20 00:09:06;;;;;;;7.60;4.90;;;;;;;;;;81860;280;3028653;-34
2023/12/20 00:11:43;;;;;;;6.60;4.90;;;;;;;;;;81997;278;3027444;-34
2023/12/20 00:14:21;;;;;;;6.60;4.40;;;;;;;;;;81986;278;3031127;-34
2023/12/20 00:17:00;;;;;;;6.70;5.00;;;;;;;;;;82020;278;3037460;-34
2023/12/20 00:19:38;;;;;;;7.00;4.70;;;;;;;;;;81979;278;3028999;-34
2023/12/20 00:22:17;;;;;;;6.50;4.50;;;;;;;;;;81989;278;3027223;-34
2023/12/20 00:24:53;;;;;;;6.10;4.30;;;;;;;;;;81960;278;3031453;-34
2023/12/20 00:27:32;;;;;;;6.90;4.40;;;;;;;;;;82028;278;3031754;-34
2023/12/20 00:30:14;;;;;;;6.30;4.40;;;;;;;;;;82016;278;3028561;-34
2023/12/20 00:32:51;;;;;;;6.70;4.60;;;;;;;;;;82235;278;3027571;-34
2023/12/20 00:35:32;;;;;;;7.20;4.50;;;;;;;;;;81997;278;3031208;-32
2023/12/20 00:38:12;;;;;;;6.40;4.30;;;;;;;;;;81981;278;3031806;-32
2023/12/20 00:40:51;;;;;;;7.10;4.60;;;;;;;;;;81990;278;3028279;-32
2023/12/20 00:43:30;;;;;;;6.90;4.40;;;;;;;;;;82003;278;3027217;-32
2023/12/20 00:46:09;;;;;;;6.70;4.40;;;;;;;;;;82007;277;3031243;-36
2023/12/20 00:48:47;;;;;;;6.40;4.00;;;;;;;;;;82012;277;3031744;-36
2023/12/20 00:51:29;;;;;;;6.00;4.10;;;;;;;;;;82018;277;3028364;-36
2023/12/20 00:54:11;;;;;;;6.30;4.30;;;;;;;;;;82012;277;3027378;-36
2023/12/20 00:56:48;;;;;;;6.10;4.10;;;;;;;;;;81992;277;3031048;-36
2023/12/20 00:59:27;;;;;;;6.60;4.20;;;;;;;;;;82006;277;3031282;-36
2023/12/20 01:02:06;;;;;;;5.60;3.90;;;;;;;;;;82022;277;3028928;-36
2023/12/20 01:04:43;;;;;;;6.70;4.10;;;;;;;;;;83407;280;3027301;-38
2023/12/20 01:07:20;;;;;;;6.30;3.90;;;;;;;;;;83388;277;3031335;-38
2023/12/20 01:09:56;;;;;;;6.80;4.00;;;;;;;;;;83417;280;3031605;-38
2023/12/20 01:12:33;;;;;;;6.20;4.00;;;;;;;;;;83436;280;3028025;-38
2023/12/20 01:15:11;;;;;;;5.70;3.90;;;;;;;;;;83439;280;3028111;-38
2023/12/20 01:17:49;;;;;;;6.00;3.70;;;;;;;;;;83423;280;3030544;-38
2023/12/20 01:20:28;;;;;;;5.80;4.00;;;;;;;;;;82070;276;3031709;-37
2023/12/20 01:23:06;;;;;;;5.80;4.00;;;;;;;;;;82088;276;3027873;-34
2023/12/20 01:25:45;;;;;;;6.10;4.00;;;;;;;;;;82083;272;3027884;-34
2023/12/20 01:28:25;;;;;;;6.40;4.00;;;;;;;;;;82038;276;3036248;-34
2023/12/20 01:31:05;;;;;;;5.90;4.00;;;;;;;;;;82064;276;3031074;-34
2023/12/20 01:33:42;;;;;;;5.40;3.60;;;;;;;;;;82215;276;3028603;-34
2023/12/20 01:36:19;;;;;;;5.80;4.10;;;;;;;;;;82078;276;3027583;-34
2023/12/20 01:38:59;;;;;;;5.50;3.50;;;;;;;;;;82085;276;3038148;-34
2023/12/20 01:41:38;;;;;;;6.80;3.60;;;;;;;;;;82096;276;3032246;-34
2023/12/20 01:44:17;;;;;;;5.80;3.90;;;;;;;;;;82056;273;3028700;-34
2023/12/20 01:46:56;;;;;;;5.30;3.80;;;;;;;;;;82645;276;3028339;-34
2023/12/20 01:49:35;;;;;;;5.70;3.80;;;;;;;;;;82072;276;3030931;-34
2023/12/20 01:52:14;;;;;;;5.60;3.70;;;;;;;;;;82046;276;3031980;-34
2023/12/20 01:54:54;;;;;;;6.50;4.10;;;;;;;;;;82063;276;3028705;-34
2023/12/20 01:57:35;;;;;;;5.80;3.80;;;;;;;;;;82082;276;3027948;-34
2023/12/20 02:00:17;;;;;;;5.90;3.80;;;;;;;;;;82077;277;3030512;-34
2023/12/20 02:02:55;;;;;;;5.20;3.30;;;;;;;;;;83427;280;3031495;-34
2023/12/20 02:05:34;;;;;;;5.70;3.30;;;;;;;;;;83426;280;3028190;-34
2023/12/20 02:08:20;;;;;;;5.80;3.70;;;;;;;;;;82497;276;3027147;-34
2023/12/20 02:10:59;;;;;;;5.30;3.40;;;;;;;;;;82054;277;3030397;-34
2023/12/20 02:13:41;;;;;;;6.00;3.50;;;;;;;;;;82300;277;3031207;-32
2023/12/20 02:16:22;;;;;;;5.80;3.30;;;;;;;;;;82053;276;3028268;-32
2023/12/20 02:19:00;;;;;;;5.50;3.50;;;;;;;;;;82975;276;3027949;-32
2023/12/20 02:21:39;;;;;;;5.70;3.40;;;;;;;;;;82052;276;3030438;-32
2023/12/20 02:24:17;;;;;;;5.10;3.20;;;;;;;;;;82078;276;3031554;-32
2023/12/20 02:26:56;;;;;;;5.30;3.20;;;;;;;;;;82030;276;3028095;-32
2023/12/20 02:29:40;;;;;;;5.70;3.20;;;;;;;;;;82083;276;3027437;-32
2023/12/20 02:32:20;;;;;;;5.60;3.10;;;;;;;;;;82047;276;3031081;-32
2023/12/20 02:35:04;;;;;;;5.80;3.60;;;;;;;;;;82049;276;3031070;-32
2023/12/20 02:37:41;;;;;;;5.10;3.10;;;;;;;;;;82055;277;3027979;-32
2023/12/20 02:40:20;;;;;;;5.10;3.10;;;;;;;;;;82106;276;3033694;-32
2023/12/20 02:43:02;;;;;;;5.00;3.10;;;;;;;;;;82092;276;3031157;-32
2023/12/20 02:45:40;;;;;;;4.80;3.00;;;;;;;;;;82103;276;3031488;-32
2023/12/20 02:48:19;;;;;;;5.50;3.10;;;;;;;;;;82060;273;3027981;-32
2023/12/20 02:50:56;;;;;;;5.20;3.00;;;;;;;;;;82085;276;3027179;-36
2023/12/20 02:53:34;;;;;;;5.00;3.10;;;;;;;;;;82043;276;3030380;-36
2023/12/20 02:56:11;;;;;;;5.50;3.00;;;;;;;;;;82090;276;3031971;-36
2023/12/20 02:58:48;;;;;;;4.80;3.00;;;;;;;;;;82040;276;3027984;-36
2023/12/20 03:01:26;;;;;;;5.30;2.80;;;;;;;;;;82108;276;3027603;-36
2023/12/20 03:04:08;;;;;;;4.50;2.80;;;;;;;;;;82057;276;3031200;-36
2023/12/20 03:06:47;;;;;;;4.70;2.80;;;;;;;;;;82092;272;3032308;-32
2023/12/20 03:09:25;;;;;;;5.00;2.80;;;;;;;;;;82025;276;3029115;-32
2023/12/20 03:12:07;;;;;;;4.60;2.80;;;;;;;;;;82085;276;3027175;-32
2023/12/20 03:14:44;;;;;;;5.10;2.90;;;;;;;;;;82792;276;3030887;-32
2023/12/20 03:17:27;;;;;;;4.80;2.80;;;;;;;;;;82083;276;3031241;-32
2023/12/20 03:20:08;;;;;;;4.90;2.60;;;;;;;;;;81993;276;3028267;-32
2023/12/20 03:22:44;;;;;;;4.80;2.60;;;;;;;;;;83456;280;3027195;-32
2023/12/20 03:25:21;;;;;;;4.30;2.50;;;;;;;;;;83469;280;3030458;-32
2023/12/20 03:27:58;;;;;;;4.50;2.80;;;;;;;;;;83439;280;3031183;-32
2023/12/20 03:30:34;;;;;;;4.90;2.70;;;;;;;;;;83450;277;3028215;-32
2023/12/20 03:33:11;;;;;;;4.80;2.60;;;;;;;;;;83454;280;3027787;-33
2023/12/20 03:35:48;;;;;;;4.70;2.70;;;;;;;;;;83443;280;3030462;-32
2023/12/20 03:38:24;;;;;;;4.60;2.70;;;;;;;;;;82191;272;3031634;-36
2023/12/20 03:41:04;;;;;;;5.20;2.70;;;;;;;;;;82028;276;3028827;-35
2023/12/20 03:43:40;;;;;;;4.60;2.50;;;;;;;;;;83452;280;3027373;-35
2023/12/20 03:46:17;;;;;;;4.70;2.50;;;;;;;;;;83454;280;3030688;-35
2023/12/20 03:48:53;;;;;;;4.90;2.50;;;;;;;;;;82987;280;3031045;-35
2023/12/20 03:51:30;;;;;;;4.50;2.50;;;;;;;;;;82060;276;3028175;-35
2023/12/20 03:54:12;;;;;;;4.70;2.30;;;;;;;;;;82065;276;3027789;-34
2023/12/20 03:56:53;;;;;;;4.70;2.40;;;;;;;;;;82106;276;3030872;-36
2023/12/20 03:59:32;;;;;;;4.80;2.40;;;;;;;;;;82083;280;3032271;-36
2023/12/20 04:02:15;;;;;;;4.40;2.50;;;;;;;;;;82119;276;3035489;-36
2023/12/20 04:04:54;;;;;;;4.80;2.50;;;;;;;;;;82113;276;3028010;-36
2023/12/20 04:07:31;;;;;;;4.70;2.50;;;;;;;;;;82126;276;3032790;-36
2023/12/20 04:10:09;;;;;;;4.40;2.30;;;;;;;;;;82083;276;3031947;-36
2023/12/20 04:12:46;;;;;;;5.00;2.60;;;;;;;;;;82338;276;3028770;-36
2023/12/20 04:15:24;;;;;;;4.40;2.40;;;;;;;;;;82134;276;3028485;-33
2023/12/20 04:18:01;;;;;;;4.70;2.40;;;;;;;;;;82105;276;3031343;-32
2023/12/20 04:20:40;;;;;;;4.30;2.10;;;;;;;;;;82055;276;3031358;-32
2023/12/20 04:23:19;;;;;;;4.50;2.40;;;;;;;;;;82078;276;3028797;-32
2023/12/20 04:25:57;;;;;;;4.80;2.40;;;;;;;;;;82059;276;3027898;-32
2023/12/20 04:28:40;;;;;;;4.90;2.30;;;;;;;;;;82093;276;3030956;-32
2023/12/20 04:31:18;;;;;;;5.20;2.40;;;;;;;;;;82033;276;3031329;-34
2023/12/20 04:33:56;;;;;;;5.30;2.30;;;;;;;;;;82086;276;3028820;-34
2023/12/20 04:36:36;;;;;;;5.80;2.40;;;;;;;;;;82088;276;3027482;-34
2023/12/20 04:39:18;;;;;;;5.10;2.50;;;;;;;;;;82105;276;3030610;-34
2023/12/20 04:41:57;;;;;;;4.60;2.20;;;;;;;;;;82043;280;3032656;-34
2023/12/20 04:44:37;;;;;;;5.00;2.10;;;;;;;;;;82048;276;3030627;-33
2023/12/20 04:47:14;;;;;;;4.90;2.20;;;;;;;;;;82086;276;3028220;-32
2023/12/20 04:49:53;;;;;;;4.80;2.40;;;;;;;;;;82064;276;3030774;-32
2023/12/20 04:52:30;;;;;;;4.90;2.20;;;;;;;;;;82042;276;3031326;-32
2023/12/20 04:55:11;;;;;;;5.20;2.40;;;;;;;;;;82090;276;3028165;-32
2023/12/20 04:57:47;;;;;;;5.20;2.40;;;;;;;;;;83427;280;3027653;-32
2023/12/20 05:00:24;;;;;;;5.00;2.30;;;;;;;;;;82587;276;3031185;-32
2023/12/20 05:03:00;;;;;;;4.40;2.20;;;;;;;;;;82047;276;3032012;-32
2023/12/20 05:05:38;;;;;;;4.90;2.40;;;;;;;;;;82021;276;3028474;-32
2023/12/20 05:08:15;;;;;;;5.10;2.00;;;;;;;;;;82081;276;3027911;-32
2023/12/20 05:10:52;;;;;;;4.90;2.10;;;;;;;;;;82043;276;3030981;-32
2023/12/20 05:13:29;;;;;;;4.20;2.10;;;;;;;;;;82031;276;3031790;-32
2023/12/20 05:16:20;;;;;;;5.10;2.20;;;;;;;;;;82080;276;3028766;-32
2023/12/20 05:18:57;;;;;;;5.30;2.10;;;;;;;;;;82085;276;3027217;-32
2023/12/20 05:21:36;;;;;;;3.80;1.90;;;;;;;;;;82054;276;3031086;-32
2023/12/20 05:24:18;;;;;;;5.80;2.40;;;;;;;;;;82051;276;3031283;-32
2023/12/20 05:26:54;;;;;;;4.40;2.00;;;;;;;;;;82097;276;3028002;-32
2023/12/20 05:29:38;;;;;;;4.90;1.90;;;;;;;;;;82100;276;3027673;-32
2023/12/20 05:32:14;;;;;;;4.30;2.10;;;;;;;;;;83440;280;3030431;-32
2023/12/20 05:34:51;;;;;;;4.30;1.80;;;;;;;;;;83458;276;3032002;-32
2023/12/20 05:37:30;;;;;;;3.70;1.70;;;;;;;;;;82726;276;3027874;-32
2023/12/20 05:40:11;;;;;;;3.90;1.80;;;;;;;;;;82081;276;3027596;-32
2023/12/20 05:42:48;;;;;;;3.80;1.90;;;;;;;;;;82423;276;3030817;-32
2023/12/20 05:45:29;;;;;;;5.00;1.90;;;;;;;;;;82100;276;3031105;-32
2023/12/20 05:48:09;;;;;;;4.50;1.80;;;;;;;;;;82078;276;3027938;-32
2023/12/20 05:50:45;;;;;;;4.40;1.80;;;;;;;;;;83466;280;3027748;-32
2023/12/20 05:53:22;;;;;;;4.40;2.00;;;;;;;;;;83441;276;3031141;-36
2023/12/20 05:55:59;;;;;;;3.90;1.90;;;;;;;;;;82366;276;3032009;-37
2023/12/20 05:58:39;;;;;;;4.20;1.90;;;;;;;;;;82097;276;3028485;-37
2023/12/20 06:01:17;;;;;;;3.90;1.90;;;;;;;;;;82091;276;3029084;-36
2023/12/20 06:03:57;;;;;;;3.70;1.90;;;;;;;;;;82064;276;3030439;-36
2023/12/20 06:06:36;;;;;;;4.40;2.00;;;;;;;;;;82096;276;3031318;-36
2023/12/20 06:09:16;;;;;;;4.00;1.90;;;;;;;;;;82068;276;3028404;-36
2023/12/20 06:11:52;;;;;;;3.70;1.70;;;;;;;;;;83211;280;3026899;-36
2023/12/20 06:14:30;;;;;;;4.50;1.80;;;;;;;;;;82052;276;3031748;-37
2023/12/20 06:17:07;;;;;;;4.20;1.70;;;;;;;;;;82080;276;3031579;-36
2023/12/20 06:19:48;;;;;;;3.70;1.80;;;;;;;;;;82072;276;3028779;-36
2023/12/20 06:22:25;;;;;;;3.50;1.80;;;;;;;;;;82111;276;3027902;-36
2023/12/20 06:25:05;;;;;;;3.60;1.70;;;;;;;;;;82068;276;3030918;-36
2023/12/20 06:27:42;;;;;;;3.80;1.60;;;;;;;;;;83427;276;3032417;-38
2023/12/20 06:30:19;;;;;;;3.80;1.70;;;;;;;;;;83453;276;3028350;-38
2023/12/20 06:32:57;;;;;;;3.60;1.70;;;;;;;;;;83351;276;3027602;-38
2023/12/20 06:35:35;;;;;;;3.70;1.70;;;;;;;;;;82042;276;3037372;-37
2023/12/20 06:38:12;;;;;;;4.60;1.80;;;;;;;;;;82088;276;3031359;-37
2023/12/20 06:40:50;;;;;;;4.00;1.80;;;;;;;;;;82060;276;3028437;-36
2023/12/20 06:43:30;;;;;;;4.00;1.70;;;;;;;;;;82109;274;3027365;-36
2023/12/20 06:46:29;;;;;;;3.80;1.70;;;;;;;;;;82313;274;3031424;-36
2023/12/20 06:49:10;;;;;;;4.20;1.90;;;;;;;;;;83461;274;3031660;-36
2023/12/20 06:51:46;;;;;;;3.40;1.70;;;;;;;;;;83494;277;3028436;-37
2023/12/20 06:54:23;;;;;;;3.70;1.70;;;;;;;;;;83464;277;3027726;-38
2023/12/20 06:57:02;;;;;;;3.50;1.70;;;;;;;;;;83045;274;3031988;-37
2023/12/20 06:59:43;;;;;;;3.60;1.50;;;;;;;;;;82140;274;3032159;-37
2023/12/20 07:02:20;;;;;;;4.10;1.80;;;;;;;;;;82995;277;3028455;-37
2023/12/20 07:05:02;;;;;;;3.20;1.50;;;;;;;;;;82150;274;3027082;-37
2023/12/20 07:07:40;;;;;;;3.60;1.80;;;;;;;;;;82149;270;3030480;-37
2023/12/20 07:10:20;;;;;;;3.70;1.60;;;;;;;;;;82122;270;3031235;-37
2023/12/20 07:13:00;;;;;;;3.30;1.50;;;;;;;;;;82147;277;3028215;-37
2023/12/20 07:15:38;;;;;;;4.00;1.60;;;;;;;;;;82127;274;3027927;-37
2023/12/20 07:18:15;;;;;;;3.80;1.50;;;;;;;;;;83507;277;3030240;-37
2023/12/20 07:20:51;;;;;;;3.30;1.40;;;;;;;;;;82743;274;3031566;-37
2023/12/20 07:23:27;;;;;;;3.70;1.50;;;;;;;;;;82145;274;3027886;-37
2023/12/20 07:26:06;;;;;;;3.40;1.60;;;;;;;;;;82135;277;3027050;-36
2023/12/20 07:28:45;;;;;;;3.30;1.70;;;;;;;;;;82179;273;3031394;-36
2023/12/20 07:31:25;;;;;;;3.30;1.40;;;;;;;;;;82131;273;3031027;-36
2023/12/20 07:34:05;;;;;;;3.30;1.40;;;;;;;;;;82164;273;3028236;-36
2023/12/20 07:36:43;;;;;;;3.80;1.90;;;;;;;;;;82773;273;3033111;-36
2023/12/20 07:39:20;;;;;;;3.50;1.60;;;;;;;;;;82140;273;3031527;-36
2023/12/20 07:42:01;;;;;;;3.60;1.50;;;;;;;;;;82137;274;3031980;-36
2023/12/20 07:44:40;;;;;;;3.00;1.40;;;;;;;;;;82121;274;3027947;-36
2023/12/20 07:47:21;;;;;;;3.40;1.60;;;;;;;;;;82163;274;3033881;-36
2023/12/20 07:49:58;;;;;;;3.70;1.60;;;;;;;;;;82135;274;3030764;-36
2023/12/20 07:52:36;;;;;;;3.50;1.80;;;;;;;;;;82142;274;3031366;-36
2023/12/20 07:55:16;;;;;;;4.00;1.60;;;;;;;;;;82130;274;3027794;-36
2023/12/20 07:57:56;;;;;;;3.30;1.50;;;;;;;;;;82171;274;3027481;-36
2023/12/20 08:00:36;;;;;;;4.40;1.70;;;;;;;;;;82171;274;3030842;-36
2023/12/20 08:03:14;;;;;;;3.70;1.70;;;;;;;;;;82118;274;3031180;-36
2023/12/20 08:05:51;;;;;;;4.00;1.90;;;;;;;;;;82070;274;3028337;-36
2023/12/20 08:08:29;;;;;;;4.10;1.60;;;;;;;;;;81657;274;3623770;-34
2023/12/20 08:11:08;;;;;;;3.30;1.50;;;;;;;;;;82111;274;3031110;-34
2023/12/20 08:13:44;;;;;;;4.80;1.70;;;;;;;;;;82341;274;3031489;-34
2023/12/20 08:16:23;;;;;;;3.90;1.70;;;;;;;;;;82080;274;3028760;-34
2023/12/20 08:19:00;;;;;;;4.20;1.80;;;;;;;;;;82143;274;3027441;-34
2023/12/20 08:21:39;;;;;;;6.20;2.00;;;;;;;;;;82173;277;3030483;-32
2023/12/20 08:24:15;;;;;;;5.20;2.20;;;;;;;;;;82167;277;3031221;-32
2023/12/20 08:26:54;;;;;;;6.70;2.20;;;;;;;;;;82128;274;3028565;-32
2023/12/20 08:29:33;;;;;;;4.90;2.10;;;;;;;;;;82156;274;3027306;-32
2023/12/20 08:32:12;;;;;;;6.10;2.10;;;;;;;;;;82177;274;3031333;-32
2023/12/20 08:34:51;;;;;;;6.00;2.00;;;;;;;;;;82188;274;3031298;-32
2023/12/20 08:37:29;;;;;;;5.80;2.20;;;;;;;;;;82142;274;3028695;-32
2023/12/20 08:40:09;;;;;;;5.40;2.20;;;;;;;;;;82161;274;3027456;-32
2023/12/20 08:42:47;;;;;;;4.30;1.90;;;;;;;;;;82655;277;3031926;-32
2023/12/20 08:45:24;;;;;;;4.90;2.00;;;;;;;;;;82203;274;3032446;-32
2023/12/20 08:48:02;;;;;;;5.80;1.80;;;;;;;;;;82185;274;3028359;-32
2023/12/20 08:50:48;;;;;;;6.00;1.90;;;;;;;;;;82185;270;3027412;-32
2023/12/20 08:53:26;;;;;;;5.60;2.20;;;;;;;;;;82560;274;3030282;-32
2023/12/20 08:56:06;;;;;;;4.80;1.90;;;;;;;;;;82184;274;3033117;-32
2023/12/20 08:58:44;;;;;;;4.90;2.20;;;;;;;;;;82519;274;3033810;-32
2023/12/20 09:01:23;;;;;;;5.90;2.20;;;;;;;;;;82196;274;3027511;-32
2023/12/20 09:04:03;;;;;;;4.90;2.00;;;;;;;;;;82212;270;3030671;-32
2023/12/20 09:06:39;;;;;;;5.90;2.50;;;;;;;;;;82227;274;3032567;-32
2023/12/20 09:09:23;;;;;;;4.60;2.00;;;;;;;;;;82241;274;3034398;-32
2023/12/20 09:12:01;;;;;;;5.10;1.90;;;;;;;;;;83548;277;3027421;-34
2023/12/20 09:14:38;;;;;;;6.00;2.10;;;;;;;;;;83554;274;3030753;-32
2023/12/20 09:17:16;;;;;;;5.10;2.00;;;;;;;;;;82225;274;3031132;-32
2023/12/20 09:19:54;;;;;;;7.90;2.00;;;;;;;;;;82505;274;3028840;-32
2023/12/20 09:22:38;;;;;;;5.50;2.00;;;;;;;;;;82217;274;3027316;31
2023/12/20 09:25:19;;;;;;;6.20;1.90;;;;;;;;;;82020;278;3031769;-30
2023/12/20 09:27:58;;;;;;;5.70;2.00;;;;;;;;;;82028;276;3031534;-30
2023/12/20 09:30:48;;;;;;;6.30;1.80;;;;;;;;;;82090;276;3028261;-35
2023/12/20 09:33:34;;;;;;;6.30;2.00;;;;;;;;;;83415;279;3028050;-34
2023/12/20 09:36:20;;;;;;;5.40;1.80;;;;;;;;;;83275;279;3030777;-32
2023/12/20 09:39:01;;;;;;;4.60;1.90;;;;;;;;;;83412;276;3031204;-33
2023/12/20 09:42:56;;;;;;;4.40;2.00;;;;;;;;;;82257;307;3011708;-33
2023/12/20 09:45:49;;;;;;;5.90;1.90;;;;;;;;;;82968;284;3027984;-33
2023/12/20 09:48:49;;;;;;;4.90;1.80;;;;;;;;;;83014;284;3027868;-34
2023/12/20 09:51:36;;;;;;;4.90;2.00;;;;;;;;;;82972;284;3030632;-35
2023/12/20 09:54:25;;;;;;;4.80;1.90;;;;;;;;;;82137;284;3038592;-35
2023/12/20 09:57:08;;;;;;;5.00;1.90;;;;;;;;;;80489;287;3027834;-35
2023/12/20 09:59:50;;;;;;;4.90;1.90;;;;;;;;;;81887;286;3027275;-33
2023/12/20 10:02:34;;;;;;;4.20;1.80;;;;;;;;;;81875;282;3031382;-33
2023/12/20 10:05:21;;;;;;;4.90;1.90;;;;;;;;;;81798;282;3031296;-34
2023/12/20 10:08:12;;;;;;;4.60;1.70;;;;;;;;;;81901;286;3028460;-33
2023/12/20 10:10:54;;;;;;;4.40;1.80;;;;;;;;;;81898;282;3027980;-33
2023/12/20 10:13:35;;;;;;;3.40;1.60;;;;;;;;;;83219;286;3031095;-34
2023/12/20 10:16:17;;;;;;;4.30;1.70;;;;;;;;;;83113;282;3031394;-34
2023/12/20 10:19:36;;;;;;;3.50;1.40;;;;;;;;;;82266;312;3011934;-30
2023/12/20 10:22:38;;;;;;;4.50;1.80;;;;;;;;;;82734;287;3027814;-30
2023/12/20 10:25:21;;;;;;;4.50;1.80;;;;;;;;;;82615;289;3027547;-31
2023/12/20 10:28:21;;;;;;;4.60;1.60;;;;;;;;;;82958;288;3030624;-32
2023/12/20 10:30:58;;;;;;;4.60;1.70;;;;;;;;;;83065;283;3037552;-32
2023/12/20 10:33:34;;;;;;;4.00;1.70;;;;;;;;;;82224;286;3028858;-33
2023/12/20 10:36:27;;;;;;;4.00;1.80;;;;;;;;;;83208;286;3027237;-33
2023/12/20 10:39:17;;;;;;;4.10;1.70;;;;;;;;;;83165;281;3030793;-33
2023/12/20 10:41:58;;;;;;;4.10;1.70;;;;;;;;;;83186;285;3030936;-34
2023/12/20 10:44:50;;;;;;;4.00;1.70;;;;;;;;;;83210;281;3028277;-33
2023/12/20 10:47:45;;;;;;;4.30;1.60;;;;;;;;;;83185;281;3027702;-33
2023/12/20 10:50:33;;;;;;;4.00;1.60;;;;;;;;;;83156;281;3031028;-32
2023/12/20 10:53:12;;;;;;;4.50;1.60;;;;;;;;;;83169;281;3040127;-32
2023/12/20 10:55:50;;;;;;;4.40;1.70;;;;;;;;;;83208;286;3028825;-31
2023/12/20 10:58:26;;;;;;;3.80;1.60;;;;;;;;;;83167;285;3028425;-32
2023/12/20 11:01:16;;;;;;;5.00;1.80;;;;;;;;;;83200;286;3030630;-33
2023/12/20 11:03:56;;;;;;;3.90;1.70;;;;;;;;;;83296;282;3032199;-32
2023/12/20 11:06:49;;;;;;;3.80;1.50;;;;;;;;;;83343;278;3027984;-33
2023/12/20 11:09:51;;;;;;;4.30;1.50;;;;;;;;;;83353;282;3027747;-33
2023/12/20 11:12:47;;;;;;;3.50;1.50;;;;;;;;;;83367;282;3030900;-33
2023/12/20 11:15:43;;;;;;;4.60;1.80;;;;;;;;;;83330;282;3032684;-33
2023/12/20 11:20:17;;;;;;;4.40;1.70;;;;;;;;;;82349;310;3011162;-35
2023/12/20 11:23:07;;;;;;;3.50;1.50;;;;;;;;;;82964;285;3028688;-34
2023/12/20 11:26:00;;;;;;;4.00;1.70;;;;;;;;;;82988;284;3028175;-34
2023/12/20 11:28:46;;;;;;;3.80;1.50;;;;;;;;;;82103;284;3030421;-35
2023/12/20 11:31:26;;;;;;;3.60;1.60;;;;;;;;;;82032;287;3032553;-35
2023/12/20 11:34:20;;;;;;;3.90;1.50;;;;;;;;;;81649;282;3027996;-35
2023/12/20 11:37:08;;;;;;;3.80;1.70;;;;;;;;;;82206;282;3017833;-32
2023/12/20 11:39:58;;;;;;;3.80;1.60;;;;;;;;;;81864;282;3031188;-33
2023/12/20 11:42:52;;;;;;;3.70;1.50;;;;;;;;;;81859;282;3031476;-34
2023/12/20 11:45:38;;;;;;;3.40;1.50;;;;;;;;;;83199;282;3028350;-34
2023/12/20 11:48:22;;;;;;;3.70;1.50;;;;;;;;;;83247;282;3027436;-35
2023/12/20 11:51:15;;;;;;;3.90;1.60;;;;;;;;;;83178;285;3030329;-33
2023/12/20 11:54:23;;;;;;;3.40;1.60;;;;;;;;;;82309;309;3011326;-33
2023/12/20 11:57:12;;;;;;;3.60;1.60;;;;;;;;;;82939;290;3028210;-34
2023/12/20 11:59:58;;;;;;;3.60;1.40;;;;;;;;;;82949;285;3027355;-32
2023/12/20 12:02:40;;;;;;;4.10;1.60;;;;;;;;;;82970;290;3031286;-35
2023/12/20 12:05:33;;;;;;;4.10;1.60;;;;;;;;;;82940;285;3038547;-34
2023/12/20 12:08:39;;;;;;;3.60;1.60;;;;;;;;;;82456;308;3011813;-31
2023/12/20 12:11:24;;;;;;;4.30;1.50;;;;;;;;;;81737;283;3028800;-38
2023/12/20 12:14:03;;;;;;;4.10;1.60;;;;;;;;;;83095;287;3027666;-39
2023/12/20 12:16:50;;;;;;;3.20;1.50;;;;;;;;;;83070;283;3031211;-39
2023/12/20 12:19:38;;;;;;;4.40;1.60;;;;;;;;;;82147;279;3036917;-37
2023/12/20 12:22:25;;;;;;;3.50;1.60;;;;;;;;;;81627;275;3028611;-38
2023/12/20 12:25:17;;;;;;;;;;;;;;;;;;82057;278;3027579;-39
2023/12/20 12:28:01;;;;;;;3.30;1.40;;;;;;;;;;82036;278;3030877;-38
2023/12/20 12:30:40;;;;;;;3.80;1.50;;;;;;;;;;82020;281;3031719;-38
2023/12/20 12:33:31;;;;;;;3.10;1.40;;;;;;;;;;82089;277;3029087;-38
2023/12/20 12:36:17;;;;;;;3.30;1.40;;;;;;;;;;82104;277;3027252;-38
2023/12/20 12:39:00;;;;;;;4.50;1.60;;;;;;;;;;82077;277;3031640;-38
2023/12/20 12:41:46;;;;;;;3.70;1.50;;;;;;;;;;82023;277;3031389;-38
2023/12/20 12:44:32;;;;;;;4.10;1.50;;;;;;;;;;81988;277;3028167;-38
2023/12/20 12:47:18;;;;;;;3.10;1.40;;;;;;;;;;82093;277;3027605;-38
2023/12/20 12:50:01;;;;;;;2.90;1.20;;;;;;;;;;82032;277;3033358;-38
2023/12/20 12:52:44;;;;;;;3.20;1.50;;;;;;;;;;82442;277;3031999;-38
2023/12/20 12:55:28;;;;;;;3.80;1.60;;;;;;;;;;81976;277;3028220;-38
2023/12/20 12:58:21;;;;;;;3.50;1.50;;;;;;;;;;81996;277;3028125;-38
2023/12/20 13:01:09;;;;;;;3.80;1.70;;;;;;;;;;82003;277;3030570;-38
2023/12/20 13:03:52;;;;;;;3.80;1.70;;;;;;;;;;82029;277;3031593;-38
2023/12/20 13:06:34;;;;;;;3.90;1.70;;;;;;;;;;82174;277;3028537;-38
2023/12/20 13:09:22;;;;;;;4.30;1.60;;;;;;;;;;82138;273;3028056;-38
2023/12/20 13:12:04;;;;;;;3.50;1.60;;;;;;;;;;82206;277;3037547;-39
2023/12/20 13:14:42;;;;;;;4.20;1.70;;;;;;;;;;82074;277;3031146;-39
2023/12/20 13:17:30;;;;;;;4.10;1.80;;;;;;;;;;82029;277;3028812;-38
2023/12/20 13:20:17;;;;;;;4.00;1.80;;;;;;;;;;82078;278;3027799;-35
2023/12/20 13:23:03;;;;;;;3.30;1.60;;;;;;;;;;83457;281;3031064;-36
2023/12/20 13:25:48;;;;;;;3.60;1.60;;;;;;;;;;83444;281;3031683;-36
2023/12/20 13:28:37;;;;;;;3.80;1.70;;;;;;;;;;83311;278;3029820;-36
2023/12/20 13:31:27;;;;;;;3.70;1.70;;;;;;;;;;83442;281;3027312;-36
2023/12/20 13:34:19;;;;;;;3.90;1.70;;;;;;;;;;83476;278;3039316;-36
2023/12/20 13:37:12;;;;;;;3.70;1.80;;;;;;;;;;82484;278;3031502;-38
2023/12/20 13:40:04;;;;;;;3.60;1.60;;;;;;;;;;82090;278;3028232;-38
2023/12/20 13:42:49;;;;;;;3.60;1.50;;;;;;;;;;82083;278;3028043;-38
2023/12/20 13:45:35;;;;;;;3.80;1.70;;;;;;;;;;82126;278;3030295;-38
2023/12/20 13:48:13;;;;;;;3.30;1.60;;;;;;;;;;82051;277;3031660;-38
2023/12/20 13:50:55;;;;;;;4.00;1.70;;;;;;;;;;82086;277;3028224;-38
2023/12/20 13:53:34;;;;;;;3.90;1.80;;;;;;;;;;82091;278;3027730;-38
2023/12/20 13:56:12;;;;;;;3.60;1.60;;;;;;;;;;82092;277;3031031;-38
2023/12/20 13:58:50;;;;;;;4.20;1.90;;;;;;;;;;82106;278;3033056;-38
2023/12/20 14:01:32;;;;;;;5.00;1.90;;;;;;;;;;82058;278;3028885;-32
2023/12/20 14:04:15;;;;;;;3.70;1.70;;;;;;;;;;82067;278;3027063;-33
2023/12/20 14:07:16;;;;;;;3.80;1.90;;;;;;;;;;82043;278;3030942;-33
2023/12/20 14:10:00;;;;;;;4.10;2.00;;;;;;;;;;82075;277;3031140;-33
2023/12/20 14:12:45;;;;;;;4.60;1.90;;;;;;;;;;83435;281;3027789;-33
2023/12/20 14:15:36;;;;;;;3.70;1.80;;;;;;;;;;82517;278;3035038;-34
2023/12/20 14:18:21;;;;;;;4.00;1.90;;;;;;;;;;82244;278;3015530;-35
2023/12/20 14:21:23;;;;;;;4.50;1.80;;;;;;;;;;83436;278;3030516;-34
2023/12/20 14:24:03;;;;;;;4.60;1.80;;;;;;;;;;83449;278;3017462;-36
2023/12/20 14:26:43;;;;;;;5.60;2.10;;;;;;;;;;82846;278;3028692;-35
2023/12/20 14:29:20;;;;;;;3.90;1.60;;;;;;;;;;83427;281;3027532;-36
2023/12/20 14:32:03;;;;;;;3.60;1.90;;;;;;;;;;83065;278;3031244;-36
2023/12/20 14:34:49;;;;;;;3.80;1.80;;;;;;;;;;82195;278;3031450;-36
2023/12/20 14:37:29;;;;;;;4.00;2.10;;;;;;;;;;82004;278;3028549;-35
2023/12/20 14:40:22;;;;;;;4.00;2.00;;;;;;;;;;82091;278;3027981;-34
2023/12/20 14:43:01;;;;;;;4.60;2.00;;;;;;;;;;82100;278;3030862;-34
2023/12/20 14:45:48;;;;;;;3.80;1.80;;;;;;;;;;82688;278;3032465;-33
2023/12/20 14:48:27;;;;;;;5.00;2.00;;;;;;;;;;82052;278;3034165;-34
2023/12/20 14:51:06;;;;;;;4.20;2.00;;;;;;;;;;82069;278;3027717;-35
2023/12/20 14:53:42;;;;;;;4.00;1.90;;;;;;;;;;83432;278;3031482;-35
2023/12/20 14:56:20;;;;;;;4.60;1.90;;;;;;;;;;83401;281;3031494;-36
2023/12/20 14:59:10;;;;;;;3.50;1.60;;;;;;;;;;82829;278;3028032;-36
2023/12/20 15:02:02;;;;;;;4.80;1.80;;;;;;;;;;83441;281;3027330;-36
2023/12/20 15:04:52;;;;;;;4.10;1.80;;;;;;;;;;83394;278;3030543;-36
2023/12/20 15:07:37;;;;;;;4.10;1.80;;;;;;;;;;71338;278;17874528;-37
2023/12/20 15:12:34;;;;;;;3.70;1.80;;;;;;;;;;82258;311;3011493;-35
2023/12/20 15:15:26;;;;;;;4.10;1.80;;;;;;;;;;81907;280;3028681;-38
2023/12/20 15:18:08;;;;;;;4.40;1.80;;;;;;;;;;82027;280;3027576;-39
2023/12/20 15:20:51;;;;;;;4.20;1.80;;;;;;;;;;82033;280;3030523;-38
2023/12/20 15:23:36;;;;;;;4.20;1.90;;;;;;;;;;81912;280;3031553;-38
2023/12/20 15:26:21;;;;;;;4.40;1.80;;;;;;;;;;81800;280;4390011;-40
2023/12/20 15:29:01;;;;;;;4.10;1.80;;;;;;;;;;82061;275;3027790;-38
2023/12/20 15:31:49;;;;;;;;;;;;;;;;;;82140;278;3031085;-37
2023/12/20 15:34:33;;;;;;;4.00;1.90;;;;;;;;;;81984;278;3038042;-37
2023/12/20 15:37:17;;;;;;;4.40;1.60;;;;;;;;;;81993;278;3028144;-37
2023/12/20 15:39:58;;;;;;;3.80;1.60;;;;;;;;;;81995;278;3027130;-37
2023/12/20 15:42:37;;;;;;;4.00;1.80;;;;;;;;;;82004;278;3031149;-37
2023/12/20 15:45:27;;;;;;;4.30;1.90;;;;;;;;;;82161;277;3031485;-38
2023/12/20 15:48:17;;;;;;;4.50;1.90;;;;;;;;;;82023;277;3031197;-38
2023/12/20 15:51:00;;;;;;;3.80;1.90;;;;;;;;;;82108;277;3031571;-39
2023/12/20 15:53:41;;;;;;;4.30;1.90;;;;;;;;;;82040;277;3028856;-39
2023/12/20 15:56:26;;;;;;;3.60;1.60;;;;;;;;;;82052;280;3028118;-40
2023/12/20 15:59:07;;;;;;;4.50;1.90;;;;;;;;;;82035;277;3030656;-37
2023/12/20 16:01:53;;;;;;;3.70;1.60;;;;;;;;;;82092;277;3031161;-38